Time;durP1;ratioP1;P1;durP2;ratioP2;P2;SDS_P1;SDS_P2;PMS_P1;PMS_P2;Temp;Humidity;BMP_temperature;BMP_pressure;BME280_temperature;BME280_humidity;BME280_pressure;Samples;Min_cycle;Max_cycle;Signal;HPM_P1;HPM_P2
2021/11/11 00:00:19;;;;;;;32.65;17.98;;;3.00;97.80;;;;;;4991980;28;20426;-75
2021/11/11 00:02:45;;;;;;;35.90;17.63;;;3.00;97.70;;;;;;4991537;28;20728;-75
2021/11/11 00:05:12;;;;;;;35.28;18.27;;;3.00;97.70;;;;;;4974442;28;20031;-75
2021/11/11 00:07:39;;;;;;;34.63;18.90;;;3.00;97.60;;;;;;4992246;28;20057;-75
2021/11/11 00:10:07;;;;;;;37.45;19.45;;;2.90;97.60;;;;;;4971580;28;20471;-75
2021/11/11 00:12:34;;;;;;;36.67;18.63;;;2.90;97.60;;;;;;5008317;28;20034;-75
2021/11/11 00:15:01;;;;;;;33.53;15.77;;;2.80;97.50;;;;;;5011508;28;20024;-75
2021/11/11 00:17:27;;;;;;;27.05;13.95;;;2.70;97.50;;;;;;4993685;28;20466;-75
2021/11/11 00:19:52;;;;;;;26.38;15.30;;;2.70;97.60;;;;;;5011443;28;20181;-75
2021/11/11 00:22:18;;;;;;;25.80;14.85;;;2.60;97.70;;;;;;5011106;28;20096;-75
2021/11/11 00:24:44;;;;;;;28.60;13.65;;;2.60;97.70;;;;;;5010286;28;20501;-75
2021/11/11 00:27:10;;;;;;;27.33;13.20;;;2.60;97.80;;;;;;4994047;28;20031;-75
2021/11/11 00:29:36;;;;;;;19.17;11.57;;;2.50;97.70;;;;;;4957596;28;20080;-75
2021/11/11 00:32:02;;;;;;;15.48;10.65;;;2.50;97.80;;;;;;4985308;28;20435;-75
2021/11/11 00:34:28;;;;;;;35.10;11.85;;;2.50;97.90;;;;;;4990389;28;20023;-75
2021/11/11 00:36:54;;;;;;;42.60;11.13;;;2.40;97.90;;;;;;4974095;28;20092;-75
2021/11/11 00:39:19;;;;;;;19.52;11.07;;;2.40;97.80;;;;;;4973808;28;20022;-75
2021/11/11 00:41:45;;;;;;;16.05;10.98;;;2.40;97.80;;;;;;4974064;28;20046;-74
2021/11/11 00:44:10;;;;;;;21.60;11.98;;;2.40;98.00;;;;;;4972861;28;20065;-74
2021/11/11 00:46:36;;;;;;;21.45;11.43;;;2.40;98.00;;;;;;4973587;28;20459;-75
2021/11/11 00:49:06;;;;;;;21.98;11.48;;;2.40;98.00;;;;;;4973393;28;20113;-74
2021/11/11 00:51:34;;;;;;;23.83;12.88;;;2.40;97.90;;;;;;4992834;28;20457;-74
2021/11/11 00:53:59;;;;;;;19.15;12.05;;;2.30;97.90;;;;;;4954887;28;20029;-74
2021/11/11 00:56:25;;;;;;;19.05;12.60;;;2.30;97.90;;;;;;4970532;28;20019;-75
2021/11/11 00:58:50;;;;;;;20.35;12.75;;;2.20;98.00;;;;;;4973809;28;20034;-74
2021/11/11 01:01:16;;;;;;;30.02;12.63;;;2.20;97.90;;;;;;4958013;28;20023;-74
2021/11/11 01:03:42;;;;;;;23.05;12.20;;;2.10;97.80;;;;;;4972364;28;20474;-74
2021/11/11 01:06:09;;;;;;;28.70;12.95;;;2.00;97.90;;;;;;4973312;28;20494;-74
2021/11/11 01:08:35;;;;;;;25.15;12.60;;;2.00;98.00;;;;;;4973786;28;20505;-74
2021/11/11 01:11:03;;;;;;;37.88;12.88;;;1.90;98.10;;;;;;4996102;28;20053;-74
2021/11/11 01:13:29;;;;;;;18.67;12.60;;;1.90;98.20;;;;;;4984094;28;20102;-74
2021/11/11 01:15:54;;;;;;;23.38;13.23;;;1.90;98.20;;;;;;4992798;28;20188;-74
2021/11/11 01:18:21;;;;;;;20.67;12.80;;;1.90;98.30;;;;;;5010529;28;20029;-75
2021/11/11 01:20:47;;;;;;;21.45;12.98;;;2.00;98.40;;;;;;5010824;28;20046;-74
2021/11/11 01:23:13;;;;;;;24.35;13.88;;;2.00;98.40;;;;;;4992114;28;20022;-74
2021/11/11 01:25:41;;;;;;;25.10;13.63;;;2.00;98.40;;;;;;4992426;28;20080;-75
2021/11/11 01:28:08;;;;;;;22.90;13.48;;;2.00;98.40;;;;;;4973027;28;20096;-74
2021/11/11 01:30:40;;;;;;;25.05;13.95;;;2.00;98.40;;;;;;4973275;28;20026;-74
2021/11/11 01:33:06;;;;;;;33.73;14.77;;;2.00;98.40;;;;;;4958707;28;20035;-74
2021/11/11 01:35:32;;;;;;;30.90;16.25;;;2.00;98.40;;;;;;4966403;28;20030;-74
2021/11/11 01:37:58;;;;;;;56.28;15.65;;;2.00;98.40;;;;;;4990757;28;20387;-74
2021/11/11 01:40:23;;;;;;;26.90;14.30;;;2.00;98.40;;;;;;4990492;28;20030;-74
2021/11/11 01:42:52;;;;;;;49.60;15.25;;;1.90;98.50;;;;;;4972444;28;20033;-74
2021/11/11 01:45:26;;;;;;;40.95;14.90;;;1.90;98.50;;;;;;4990024;28;20026;-74
2021/11/11 01:47:52;;;;;;;66.15;14.75;;;1.80;98.50;;;;;;4990753;28;20030;-74
2021/11/11 01:50:18;;;;;;;52.13;13.85;;;1.70;98.30;;;;;;4972676;28;20535;-74
2021/11/11 01:52:44;;;;;;;36.88;13.50;;;1.70;98.40;;;;;;4976983;28;20066;-74
2021/11/11 01:55:10;;;;;;;71.28;14.70;;;1.60;98.50;;;;;;4961593;28;20019;-74
2021/11/11 01:57:36;;;;;;;34.58;14.15;;;1.60;98.70;;;;;;4971188;28;20026;-74
2021/11/11 02:00:06;;;;;;;53.88;13.55;;;1.60;98.70;;;;;;4978662;28;20030;-74
2021/11/11 02:02:32;;;;;;;57.60;13.07;;;1.50;98.70;;;;;;4976399;28;20109;-75
2021/11/11 02:04:57;;;;;;;64.45;14.02;;;1.50;98.70;;;;;;4993842;28;20132;-73
2021/11/11 02:07:23;;;;;;;55.55;13.75;;;1.50;98.70;;;;;;4994516;28;20041;-74
2021/11/11 02:09:49;;;;;;;66.20;14.27;;;1.40;98.70;;;;;;4976857;28;20030;-73
2021/11/11 02:12:16;;;;;;;51.33;13.10;;;1.40;98.80;;;;;;4983515;28;20050;-74
2021/11/11 02:14:41;;;;;;;27.80;13.00;;;1.40;98.70;;;;;;5004650;28;20489;-74
2021/11/11 02:17:07;;;;;;;38.83;13.88;;;1.40;98.80;;;;;;5013934;28;20085;-74
2021/11/11 02:19:32;;;;;;;27.52;14.60;;;1.40;98.90;;;;;;5013479;28;20390;-75
2021/11/11 02:21:58;;;;;;;22.55;14.57;;;1.40;99.10;;;;;;4998566;28;20026;-74
2021/11/11 02:24:24;;;;;;;28.15;13.65;;;1.40;98.90;;;;;;4993007;28;20058;-74
2021/11/11 02:26:51;;;;;;;45.53;14.02;;;1.50;99.00;;;;;;4993990;28;20022;-74
2021/11/11 02:29:17;;;;;;;50.25;14.23;;;1.50;99.00;;;;;;4993898;28;20478;-75
2021/11/11 02:31:44;;;;;;;39.50;14.73;;;1.50;98.90;;;;;;4976094;28;20053;-74
2021/11/11 02:34:12;;;;;;;54.55;14.50;;;1.40;98.80;;;;;;4993149;28;20022;-73
2021/11/11 02:36:55;;;;;;;28.45;14.15;;;1.40;98.80;;;;;;4976060;28;20084;-74
2021/11/11 02:39:21;;;;;;;29.00;12.57;;;1.30;98.90;;;;;;4993892;28;20227;-73
2021/11/11 02:41:46;;;;;;;25.85;14.50;;;1.30;99.00;;;;;;4993681;28;20034;-74
2021/11/11 02:44:12;;;;;;;29.50;14.90;;;1.30;99.00;;;;;;4975188;28;20038;-74
2021/11/11 02:46:37;;;;;;;42.45;14.25;;;1.40;99.10;;;;;;4975655;28;20054;-74
2021/11/11 02:49:03;;;;;;;37.38;14.77;;;1.40;99.10;;;;;;4975927;28;20462;-73
2021/11/11 02:51:29;;;;;;;69.43;14.95;;;1.40;99.00;;;;;;4967702;28;20173;-74
2021/11/11 02:53:54;;;;;;;27.10;14.48;;;1.40;99.10;;;;;;4992457;28;20022;-73
2021/11/11 02:56:20;;;;;;;32.80;13.57;;;1.50;99.10;;;;;;4993261;28;20117;-73
2021/11/11 02:58:46;;;;;;;32.95;14.32;;;1.50;99.10;;;;;;4993535;28;20022;-74
2021/11/11 03:01:11;;;;;;;48.28;15.95;;;1.50;99.00;;;;;;4961005;28;20139;-73
2021/11/11 03:03:37;;;;;;;68.07;16.33;;;1.40;99.00;;;;;;4973261;28;20391;-73
2021/11/11 03:06:03;;;;;;;41.90;16.60;;;1.40;99.00;;;;;;4956478;28;20479;-74
2021/11/11 03:08:28;;;;;;;40.80;15.48;;;1.40;99.00;;;;;;4973707;28;20034;-74
2021/11/11 03:10:54;;;;;;;73.60;15.75;;;1.40;99.10;;;;;;4988170;28;20014;-74
2021/11/11 03:13:20;;;;;;;60.72;15.85;;;1.40;99.20;;;;;;5042635;23;20050;-89
2021/11/11 03:15:46;;;;;;;48.33;15.68;;;1.40;99.30;;;;;;4986201;28;20054;-89
2021/11/11 03:18:12;;;;;;;71.05;16.35;;;1.40;99.10;;;;;;4977837;28;20026;-89
2021/11/11 03:20:38;;;;;;;61.30;15.35;;;1.40;99.20;;;;;;4977658;28;20034;-89
2021/11/11 03:23:04;;;;;;;44.83;15.88;;;1.40;99.10;;;;;;4994375;28;20026;-90
2021/11/11 03:25:33;;;;;;;30.48;14.85;;;1.40;99.20;;;;;;4977877;28;20550;-87
2021/11/11 03:27:59;;;;;;;68.35;15.77;;;1.30;99.30;;;;;;4969542;28;20081;-89
2021/11/11 03:30:27;;;;;;;22.90;14.38;;;1.40;99.40;;;;;;4958070;28;20023;-87
2021/11/11 03:32:56;;;;;;;43.00;15.60;;;1.40;99.40;;;;;;4964249;28;20111;-88
2021/11/11 03:35:22;;;;;;;25.42;14.60;;;1.40;99.40;;;;;;4977313;28;20023;-87
2021/11/11 03:37:49;;;;;;;30.33;15.23;;;1.40;99.50;;;;;;4991976;28;20056;-89
2021/11/11 03:40:23;;;;;;;28.10;15.50;;;1.50;99.60;;;;;;4977934;28;20026;-88
2021/11/11 03:42:50;;;;;;;44.38;14.90;;;1.50;99.60;;;;;;4976335;28;20492;-87
2021/11/11 03:45:18;;;;;;;26.27;14.63;;;1.60;99.60;;;;;;4984579;28;20449;-88
2021/11/11 03:47:44;;;;;;;46.22;16.10;;;1.60;99.70;;;;;;4993953;28;20447;-88
2021/11/11 03:50:12;;;;;;;38.70;16.23;;;1.60;99.70;;;;;;4989654;28;20493;-86
2021/11/11 03:52:38;;;;;;;45.47;17.27;;;1.70;99.70;;;;;;4968531;28;20036;-89
2021/11/11 03:55:06;;;;;;;45.30;17.52;;;1.70;99.70;;;;;;4984660;28;20101;-89
2021/11/11 03:57:32;;;;;;;53.90;17.98;;;1.60;99.50;;;;;;4977222;28;20410;-88
2021/11/11 03:59:58;;;;;;;53.25;18.98;;;1.50;99.40;;;;;;4968611;28;20035;-89
2021/11/11 04:02:23;;;;;;;45.47;18.05;;;1.40;99.30;;;;;;4976670;28;20042;-87
2021/11/11 04:04:54;;;;;;;42.38;18.02;;;1.30;99.50;;;;;;4959336;28;20538;-88
2021/11/11 04:07:20;;;;;;;53.83;16.50;;;1.30;99.70;;;;;;4958283;28;20030;-86
2021/11/11 04:09:46;;;;;;;31.92;16.13;;;1.30;99.70;;;;;;4957665;28;20021;-87
2021/11/11 04:12:12;;;;;;;47.45;17.73;;;1.30;99.70;;;;;;4974446;28;20030;-89
2021/11/11 04:14:38;;;;;;;47.55;17.95;;;1.30;99.80;;;;;;4980673;28;20310;-86
2021/11/11 04:17:04;;;;;;;56.35;17.75;;;1.30;99.80;;;;;;4976346;28;20022;-87
2021/11/11 04:19:29;;;;;;;62.38;18.35;;;1.20;99.80;;;;;;4959204;28;20042;-88
2021/11/11 04:21:55;;;;;;;65.13;17.23;;;1.20;99.70;;;;;;4957064;28;20046;-88
2021/11/11 04:24:20;;;;;;;46.15;16.95;;;1.20;99.70;;;;;;4957741;28;20382;-88
2021/11/11 04:27:01;;;;;;;61.47;18.85;;;1.10;99.70;;;;;;4957532;28;20046;-88
2021/11/11 04:29:33;;;;;;;61.95;17.25;;;1.10;99.80;;;;;;4974449;28;20030;-88
2021/11/11 04:32:03;;;;;;;48.65;16.52;;;1.10;99.70;;;;;;4976832;28;20022;-87
2021/11/11 04:34:32;;;;;;;61.13;17.00;;;1.00;99.60;;;;;;4959753;28;20027;-86
2021/11/11 04:52:42;;;;;;;;;;;0.90;99.90;;;;;;4992222;28;20018;-88
2021/11/11 05:05:32;;;;;;;44.38;15.25;;;1.00;99.80;;;;;;4976043;28;20473;-88
2021/11/11 05:07:58;;;;;;;39.20;14.60;;;0.90;99.80;;;;;;4992547;28;20145;-88
2021/11/11 05:10:25;;;;;;;95.43;15.98;;;0.90;99.80;;;;;;4975597;28;20072;-88
2021/11/11 05:12:51;;;;;;;82.95;16.83;;;0.90;99.90;;;;;;4984773;28;20033;-89
2021/11/11 05:15:18;;;;;;;31.63;15.30;;;0.90;99.90;;;;;;4987884;28;20080;-88
2021/11/11 05:17:45;;;;;;;72.30;15.73;;;0.90;99.90;;;;;;4979112;28;20034;-87
2021/11/11 05:20:16;;;;;;;110.13;15.50;;;0.90;99.90;;;;;;4956406;28;20117;-88
2021/11/11 05:22:43;;;;;;;134.27;16.02;;;0.90;99.90;;;;;;4960434;28;20031;-88
2021/11/11 05:25:09;;;;;;;90.20;14.90;;;1.00;99.90;;;;;;4956672;28;20397;-87
2021/11/11 05:27:36;;;;;;;29.08;13.52;;;0.90;99.80;;;;;;4958812;28;20093;-88
2021/11/11 05:30:04;;;;;;;38.05;14.25;;;0.90;99.90;;;;;;4973975;28;20425;-89
2021/11/11 05:32:31;;;;;;;77.18;13.75;;;0.90;99.90;;;;;;4956843;28;20103;-89
2021/11/11 05:34:56;;;;;;;43.92;13.40;;;1.00;99.90;;;;;;4956143;28;20553;-89
2021/11/11 05:37:22;;;;;;;42.67;13.05;;;1.00;99.90;;;;;;4972286;28;20026;-86
2021/11/11 05:39:48;;;;;;;83.22;14.55;;;1.00;99.90;;;;;;4992470;28;20140;-89
2021/11/11 05:42:13;;;;;;;92.10;14.43;;;1.10;99.90;;;;;;4963273;28;20061;-89
2021/11/11 05:44:39;;;;;;;40.70;13.18;;;1.10;99.90;;;;;;4991084;28;20109;-88
2021/11/11 05:47:05;;;;;;;69.65;14.57;;;1.10;99.90;;;;;;4962587;28;20059;-89
2021/11/11 05:49:30;;;;;;;71.80;13.90;;;1.10;99.90;;;;;;4957582;28;20431;-88
2021/11/11 05:51:57;;;;;;;46.15;13.70;;;1.10;99.90;;;;;;4980613;28;20128;-88
2021/11/11 05:54:22;;;;;;;47.33;13.10;;;1.10;99.90;;;;;;4987156;28;20038;-87
2021/11/11 05:56:48;;;;;;;67.43;14.13;;;1.10;99.90;;;;;;4959980;28;20023;-88
2021/11/11 05:59:14;;;;;;;52.13;13.15;;;1.00;99.90;;;;;;4958157;28;20126;-88
2021/11/11 06:01:40;;;;;;;50.17;12.95;;;0.90;99.90;;;;;;4959528;28;20117;-88
2021/11/11 06:04:05;;;;;;;76.13;13.88;;;1.00;99.90;;;;;;4957261;28;20065;-88
2021/11/11 06:06:31;;;;;;;61.38;14.32;;;0.90;99.90;;;;;;4982279;28;20027;-88
2021/11/11 06:08:57;;;;;;;55.55;15.90;;;0.90;99.90;;;;;;4964114;28;20041;-88
2021/11/11 06:11:23;;;;;;;41.78;15.68;;;0.90;99.90;;;;;;4974423;28;20019;-88
2021/11/11 06:13:49;;;;;;;50.55;15.70;;;1.00;99.90;;;;;;4981109;28;20034;-88
2021/11/11 06:16:14;;;;;;;36.75;14.93;;;0.90;99.90;;;;;;4980409;28;20073;-87
2021/11/11 06:18:40;;;;;;;46.35;15.57;;;0.90;99.90;;;;;;4972001;28;21540;-88
2021/11/11 06:21:07;;;;;;;54.42;16.00;;;0.90;99.90;;;;;;4958654;28;20401;-89
2021/11/11 06:23:33;;;;;;;57.70;17.13;;;0.80;99.90;;;;;;4957742;28;20109;-88
2021/11/11 06:26:00;;;;;;;44.22;16.27;;;0.80;99.90;;;;;;4972609;28;20113;-88
2021/11/11 06:28:25;;;;;;;36.65;16.15;;;0.80;99.90;;;;;;4973327;28;20413;-89
2021/11/11 06:30:51;;;;;;;43.72;16.38;;;0.70;99.90;;;;;;4980707;28;20018;-89
2021/11/11 06:36:39;;;;;;;51.30;16.63;;;0.70;99.90;;;;;;4973440;28;20081;-89
2021/11/11 06:39:05;;;;;;;56.60;18.48;;;0.70;99.90;;;;;;4962864;28;20031;-88
2021/11/11 06:41:37;;;;;;;53.17;19.00;;;0.70;99.90;;;;;;4966667;28;20034;-89
2021/11/11 06:44:04;;;;;;;58.83;18.67;;;0.70;99.90;;;;;;4979712;28;20525;-90
2021/11/11 06:46:31;;;;;;;35.30;16.98;;;0.70;99.90;;;;;;4981971;28;20052;-89
2021/11/11 06:48:57;;;;;;;40.92;17.70;;;0.70;99.90;;;;;;4988674;28;20027;-86
2021/11/11 06:51:22;;;;;;;39.67;18.38;;;0.80;99.90;;;;;;4960923;28;20018;-87
2021/11/11 06:53:48;;;;;;;42.65;18.38;;;0.80;99.90;;;;;;4961379;28;20471;-87
2021/11/11 06:56:14;;;;;;;41.50;19.05;;;0.90;99.90;;;;;;4970218;28;20034;-88
2021/11/11 06:58:40;;;;;;;54.75;20.65;;;1.00;99.90;;;;;;4983852;28;20057;-88
2021/11/11 07:01:06;;;;;;;89.60;22.70;;;1.00;99.90;;;;;;4963668;28;20161;-88
2021/11/11 07:03:32;;;;;;;64.45;20.83;;;1.10;99.90;;;;;;4964878;28;20036;-86
2021/11/11 07:05:59;;;;;;;67.95;18.08;;;1.10;99.90;;;;;;4980047;28;20026;-89
2021/11/11 07:08:24;;;;;;;105.63;18.45;;;1.10;99.90;;;;;;4978305;28;20053;-87
2021/11/11 07:10:53;;;;;;;215.07;21.10;;;1.20;99.90;;;;;;4969691;28;20042;-88
2021/11/11 07:13:19;;;;;;;202.85;20.92;;;1.20;99.90;;;;;;4969516;28;20081;-87
2021/11/11 07:15:46;;;;;;;91.95;18.00;;;1.20;99.90;;;;;;4990321;28;20084;-87
2021/11/11 07:18:13;;;;;;;44.47;17.13;;;1.20;99.90;;;;;;4991109;28;20033;-88
2021/11/11 07:20:43;;;;;;;41.83;16.02;;;1.30;99.90;;;;;;4973998;28;20031;-88
2021/11/11 07:23:10;;;;;;;217.63;19.95;;;1.30;99.90;;;;;;4963024;28;20064;-87
2021/11/11 07:25:36;;;;;;;189.65;19.48;;;1.30;99.90;;;;;;4961767;28;20023;-87
2021/11/11 07:28:01;;;;;;;135.60;19.27;;;1.30;99.90;;;;;;4960493;28;20102;-87
2021/11/11 07:30:28;;;;;;;37.58;16.52;;;1.30;99.90;;;;;;4966909;28;20034;-88
2021/11/11 07:32:54;;;;;;;65.38;18.85;;;1.30;99.90;;;;;;4963108;28;20019;-87
2021/11/11 07:35:20;;;;;;;96.63;19.08;;;1.40;99.90;;;;;;4985034;28;20117;-87
2021/11/11 07:37:50;;;;;;;103.95;17.80;;;1.40;99.90;;;;;;4975966;28;20104;-87
2021/11/11 07:40:18;;;;;;;45.17;19.02;;;1.40;99.90;;;;;;4965409;28;20030;-87
2021/11/11 07:42:44;;;;;;;53.33;20.20;;;1.50;99.90;;;;;;4990218;28;20515;-86
2021/11/11 07:45:12;;;;;;;145.57;20.77;;;1.50;99.90;;;;;;4992033;28;20034;-87
2021/11/11 07:47:40;;;;;;;68.68;19.17;;;1.60;99.90;;;;;;4985545;28;20105;-87
2021/11/11 07:50:08;;;;;;;47.45;17.20;;;1.60;99.90;;;;;;4985441;28;20027;-85
2021/11/11 07:52:34;;;;;;;77.25;17.90;;;1.70;99.90;;;;;;4993550;28;20029;-87
2021/11/11 07:55:01;;;;;;;90.95;16.58;;;1.70;99.90;;;;;;4981132;28;20023;-88
2021/11/11 07:57:29;;;;;;;45.92;16.10;;;1.70;99.90;;;;;;4985410;28;20448;-87
2021/11/11 07:59:56;;;;;;;137.18;19.83;;;1.70;99.90;;;;;;4974920;28;20113;-87
2021/11/11 08:02:22;;;;;;;119.18;19.17;;;1.80;99.90;;;;;;4958446;28;20027;-87
2021/11/11 08:04:48;;;;;;;146.15;18.80;;;1.70;99.90;;;;;;4976984;28;20026;-86
2021/11/11 08:07:17;;;;;;;116.20;17.98;;;1.70;99.90;;;;;;4959554;28;20441;-87
2021/11/11 08:09:47;;;;;;;145.13;18.35;;;1.80;99.90;;;;;;4958491;28;20054;-90
2021/11/11 08:12:12;;;;;;;69.63;17.27;;;1.80;99.90;;;;;;4968720;28;20441;-86
2021/11/11 08:14:39;;;;;;;77.00;17.05;;;1.80;99.90;;;;;;4983365;28;20064;-91
2021/11/11 08:17:05;;;;;;;42.78;17.48;;;1.80;99.90;;;;;;4975952;28;20015;-87
2021/11/11 08:19:32;;;;;;;75.22;21.83;;;1.80;99.90;;;;;;4942354;28;20513;-87
2021/11/11 08:21:57;;;;;;;55.78;19.73;;;1.90;99.90;;;;;;4958044;28;20074;-87
2021/11/11 08:24:23;;;;;;;72.45;18.05;;;1.90;99.90;;;;;;4967527;28;20035;-88
2021/11/11 08:26:48;;;;;;;61.15;16.92;;;2.10;99.90;;;;;;4990452;28;20061;-88
2021/11/11 08:29:14;;;;;;;71.15;15.70;;;2.10;99.90;;;;;;4993832;28;20084;-87
2021/11/11 08:31:39;;;;;;;66.15;16.35;;;2.20;99.90;;;;;;4991300;28;20038;-87
2021/11/11 08:34:06;;;;;;;46.25;14.82;;;2.10;99.90;;;;;;4957724;28;20031;-88
2021/11/11 08:36:31;;;;;;;62.83;15.23;;;2.20;99.90;;;;;;4958021;28;20029;-87
2021/11/11 08:38:58;;;;;;;50.40;14.32;;;2.20;99.90;;;;;;4957727;28;20027;-86
2021/11/11 08:41:25;;;;;;;34.97;15.10;;;2.20;99.90;;;;;;4959196;28;20394;-88
2021/11/11 08:43:51;;;;;;;37.40;15.05;;;2.30;99.90;;;;;;4991375;28;20058;-88
2021/11/11 08:46:16;;;;;;;37.92;15.98;;;2.30;99.90;;;;;;4989207;28;20108;-87
2021/11/11 08:48:42;;;;;;;39.03;14.80;;;2.30;99.90;;;;;;4978447;28;20039;-85
2021/11/11 08:51:08;;;;;;;36.22;14.65;;;2.40;99.90;;;;;;4972125;28;20041;-86
2021/11/11 08:53:34;;;;;;;30.20;14.60;;;2.40;99.90;;;;;;4979363;28;20443;-87
2021/11/11 08:55:59;;;;;;;43.15;15.18;;;2.40;99.90;;;;;;4988266;28;20017;-87
2021/11/11 08:58:29;;;;;;;30.17;15.15;;;2.40;99.90;;;;;;4989168;28;20052;-88
2021/11/11 09:00:55;;;;;;;30.98;15.18;;;2.50;99.90;;;;;;4987330;28;20049;-88
2021/11/11 09:03:21;;;;;;;51.50;15.07;;;2.50;99.90;;;;;;4977058;28;20073;-87
2021/11/11 09:05:48;;;;;;;37.30;15.65;;;2.60;99.90;;;;;;4961198;28;20039;-87
2021/11/11 09:08:16;;;;;;;30.70;15.35;;;2.70;99.90;;;;;;4972326;28;20493;-88
2021/11/11 09:10:50;;;;;;;31.65;15.93;;;2.70;99.90;;;;;;4960363;28;20485;-86
2021/11/11 09:13:16;;;;;;;28.08;15.70;;;2.80;99.90;;;;;;4975473;28;20114;-86
2021/11/11 09:19:24;;;;;;;27.77;15.77;;;2.90;99.90;;;;;;4991507;28;20093;-86
2021/11/11 09:21:53;;;;;;;24.00;15.10;;;3.00;99.90;;;;;;4962457;28;20050;-86
2021/11/11 09:24:55;;;;;;;23.85;15.10;;;3.20;99.90;;;;;;4963474;28;20041;-90
2021/11/11 09:31:15;;;;;;;28.13;14.15;;;3.30;99.90;;;;;;4883653;29;20068;-88
2021/11/11 09:33:46;;;;;;;27.85;14.82;;;3.30;99.90;;;;;;4899835;29;20555;-87
2021/11/11 09:36:14;;;;;;;24.00;14.32;;;3.40;99.90;;;;;;4899087;29;20039;-86
2021/11/11 09:38:40;;;;;;;28.45;14.52;;;3.50;99.90;;;;;;4898425;29;20040;-87
2021/11/11 09:41:56;;;;;;;25.05;15.10;;;3.60;99.90;;;;;;4959530;28;20035;-87
2021/11/11 09:45:01;;;;;;;22.13;14.90;;;3.70;99.90;;;;;;4978707;28;20046;-87
2021/11/11 09:47:32;;;;;;;29.17;15.63;;;3.80;99.90;;;;;;4964144;28;20035;-88
2021/11/11 09:53:09;;;;;;;39.55;14.88;;;3.90;99.90;;;;;;4942013;28;20788;-87
2021/11/11 09:58:37;;;;;;;24.08;14.20;;;4.00;99.90;;;;;;5002179;28;20065;-86
2021/11/11 10:01:04;;;;;;;;;;;4.20;99.90;;;;;;4960977;28;20031;-86
2021/11/11 10:03:30;;;;;;;23.08;12.60;;;4.30;99.90;;;;;;4956745;28;20001;-86
2021/11/11 10:05:56;;;;;;;21.10;13.82;;;4.40;99.90;;;;;;4976789;28;20029;-86
2021/11/11 10:08:54;;;;;;;17.80;12.40;;;4.40;99.90;;;;;;4961089;28;20401;-88
2021/11/11 10:11:33;;;;;;;19.85;12.70;;;4.50;99.90;;;;;;4989090;23;20046;-73
2021/11/11 10:14:14;;;;;;;23.42;13.07;;;4.50;99.90;;;;;;4982804;28;20050;-75
2021/11/11 10:17:01;;;;;;;28.73;12.82;;;4.60;99.90;;;;;;4973753;28;20095;-78
2021/11/11 10:19:29;;;;;;;18.63;12.95;;;4.70;99.90;;;;;;4961231;28;20035;-79
2021/11/11 10:22:08;;;;;;;21.77;14.70;;;4.70;99.90;;;;;;4979145;28;20018;-79
2021/11/11 10:25:00;;;;;;;20.83;14.15;;;4.80;99.90;;;;;;4978188;28;20111;-78
2021/11/11 10:27:28;;;;;;;23.38;14.75;;;4.90;99.90;;;;;;4996247;28;20108;-78
2021/11/11 10:30:20;;;;;;;25.23;15.48;;;4.90;99.90;;;;;;4978034;28;20076;-76
2021/11/11 10:32:47;;;;;;;27.88;16.42;;;5.00;99.90;;;;;;4970949;28;20038;-76
2021/11/11 10:35:35;;;;;;;24.90;15.68;;;5.00;99.90;;;;;;4977053;28;20015;-77
2021/11/11 10:38:15;;;;;;;27.80;17.25;;;5.10;99.90;;;;;;4972194;28;20054;-77
2021/11/11 10:40:44;;;;;;;24.65;15.68;;;5.20;99.90;;;;;;4973989;28;20258;-76
2021/11/11 10:43:21;;;;;;;30.60;16.42;;;5.30;99.90;;;;;;4964011;28;20144;-76
2021/11/11 10:45:50;;;;;;;29.33;17.08;;;5.30;99.90;;;;;;4968953;28;20497;-77
2021/11/11 10:48:19;;;;;;;29.15;18.17;;;5.30;99.90;;;;;;4976977;28;20035;-76
2021/11/11 10:50:50;;;;;;;29.13;17.75;;;5.40;99.90;;;;;;4976866;28;20033;-77
2021/11/11 10:53:23;;;;;;;33.92;19.83;;;5.50;99.90;;;;;;4976315;28;20027;-76
2021/11/11 10:55:55;;;;;;;33.83;19.10;;;5.50;99.90;;;;;;4976878;28;20050;-75
2021/11/11 10:58:23;;;;;;;30.58;19.73;;;5.60;99.90;;;;;;4976731;28;20080;-75
2021/11/11 11:00:54;;;;;;;35.15;19.98;;;5.60;99.90;;;;;;4957781;28;20058;-75
2021/11/11 11:03:27;;;;;;;31.58;19.00;;;5.70;99.90;;;;;;4956603;28;20027;-75
2021/11/11 11:05:53;;;;;;;34.10;20.80;;;5.70;99.90;;;;;;4957770;28;20456;-75
2021/11/11 11:08:23;;;;;;;26.55;18.60;;;5.80;99.90;;;;;;4976937;28;20030;-75
2021/11/11 11:10:56;;;;;;;35.28;20.33;;;5.80;99.90;;;;;;4973655;28;20711;-76
2021/11/11 11:13:26;;;;;;;27.63;18.50;;;5.80;99.90;;;;;;4976084;28;20042;-78
2021/11/11 11:15:52;;;;;;;28.95;18.25;;;5.80;99.90;;;;;;4994949;28;20026;-77
2021/11/11 11:18:21;;;;;;;31.25;18.35;;;5.80;99.90;;;;;;4969483;28;20049;-76
2021/11/11 11:20:47;;;;;;;31.88;19.55;;;5.90;99.90;;;;;;4972031;28;20034;-76
2021/11/11 11:23:32;;;;;;;26.98;17.27;;;5.90;99.90;;;;;;4965850;28;20358;-76
2021/11/11 11:26:02;;;;;;;29.75;18.25;;;6.00;99.90;;;;;;4970214;28;20710;-76
2021/11/11 11:28:50;;;;;;;26.63;17.63;;;6.20;99.90;;;;;;4994129;28;20037;-76
2021/11/11 11:31:51;;;;;;;27.67;17.65;;;6.30;99.90;;;;;;4993764;28;20025;-77
2021/11/11 11:34:21;;;;;;;27.45;17.90;;;6.50;99.90;;;;;;4963022;28;20026;-77
2021/11/11 11:36:54;;;;;;;28.00;17.42;;;6.70;99.90;;;;;;4993399;28;20037;-78
2021/11/11 11:39:24;;;;;;;25.88;17.38;;;6.90;99.90;;;;;;4976623;28;20463;-77
2021/11/11 11:41:50;;;;;;;31.50;18.60;;;7.20;99.90;;;;;;4976521;28;20367;-78
2021/11/11 11:44:32;;;;;;;28.98;17.88;;;7.40;99.90;;;;;;4968145;28;20027;-77
2021/11/11 11:47:19;;;;;;;30.13;18.40;;;7.60;99.90;;;;;;4965724;28;20045;-77
2021/11/11 11:49:51;;;;;;;32.60;18.85;;;7.70;99.90;;;;;;4964995;28;20023;-76
2021/11/11 11:52:17;;;;;;;36.28;19.48;;;7.90;99.90;;;;;;4973184;28;20050;-76
2021/11/11 11:57:19;;;;;;;29.65;19.08;;;8.10;99.90;;;;;;4987407;28;20547;-78
2021/11/11 11:59:51;;;;;;;28.75;18.83;;;8.20;99.90;;;;;;4978171;28;20032;-78
2021/11/11 12:02:44;;;;;;;28.60;19.35;;;8.30;99.90;;;;;;4975903;28;20445;-79
2021/11/11 12:05:32;;;;;;;25.65;16.20;;;8.40;99.90;;;;;;4992023;28;20394;-78
2021/11/11 12:08:11;;;;;;;;;;;8.50;99.90;;;;;;4974350;28;20019;-76
2021/11/11 12:40:17;;;;;;;21.75;14.95;;;11.20;99.70;;;;;;4975673;28;20097;-76
2021/11/11 12:42:55;;;;;;;23.88;14.00;;;11.30;99.20;;;;;;4955957;28;20019;-76
2021/11/11 12:45:30;;;;;;;40.83;24.75;;;11.40;99.20;;;;;;4992112;28;20022;-77
2021/11/11 12:48:00;;;;;;;25.33;15.90;;;11.50;99.30;;;;;;4975277;28;20023;-76
2021/11/11 12:50:41;;;;;;;22.85;14.27;;;11.60;99.40;;;;;;4974521;28;20558;-79
2021/11/11 12:53:12;;;;;;;23.42;15.55;;;11.80;99.10;;;;;;4968598;28;20113;-77
2021/11/11 12:55:39;;;;;;;21.02;14.70;;;11.90;99.00;;;;;;4972152;28;20033;-77
2021/11/11 12:58:07;;;;;;;23.20;15.40;;;12.00;99.00;;;;;;4967583;28;20407;-77
2021/11/11 13:00:37;;;;;;;22.33;15.27;;;12.20;99.00;;;;;;4985114;28;20033;-73
2021/11/11 13:03:04;;;;;;;22.83;15.68;;;12.30;98.80;;;;;;4990945;28;20022;-72
2021/11/11 13:05:50;;;;;;;25.15;15.55;;;12.40;98.60;;;;;;4974258;28;20504;-72
2021/11/11 13:08:21;;;;;;;19.73;13.93;;;12.50;98.30;;;;;;4974843;28;20034;-72
2021/11/11 13:10:58;;;;;;;22.55;15.15;;;12.60;98.20;;;;;;4987983;28;20530;-72
2021/11/11 13:13:27;;;;;;;22.35;14.68;;;12.70;98.10;;;;;;4972659;28;20044;-75
2021/11/11 13:16:19;;;;;;;22.23;14.88;;;12.80;98.20;;;;;;4972370;28;20034;-75
2021/11/11 13:18:48;;;;;;;21.20;15.00;;;12.90;97.60;;;;;;4966484;28;20117;-77
2021/11/11 13:21:22;;;;;;;21.70;15.15;;;13.00;97.90;;;;;;4992005;28;20133;-75
2021/11/11 15:16:55;;;;;;;21.88;14.43;;;9.30;94.60;;;;;;4994179;28;20034;-74
2021/11/11 16:23:19;;;;;;;30.17;15.57;;;6.90;95.60;;;;;;4991902;28;20147;-69
2021/11/11 16:26:11;;;;;;;27.80;15.63;;;6.80;95.60;;;;;;4991589;28;20090;-69
2021/11/11 16:28:37;;;;;;;23.92;15.38;;;6.70;95.70;;;;;;4991999;28;20022;-69
2021/11/11 16:31:02;;;;;;;24.45;15.40;;;6.50;95.80;;;;;;4992682;28;20109;-69
2021/11/11 16:33:28;;;;;;;21.63;14.20;;;6.50;95.90;;;;;;4991563;28;20454;-69
2021/11/11 16:35:54;;;;;;;68.50;17.02;;;6.50;96.00;;;;;;4974793;28;20034;-69
2021/11/11 16:38:20;;;;;;;23.77;17.05;;;6.40;96.00;;;;;;4992205;28;20406;-71
2021/11/11 16:40:46;;;;;;;24.48;16.15;;;6.30;96.10;;;;;;4971385;28;20027;-69
2021/11/11 16:43:12;;;;;;;26.67;16.75;;;6.30;96.20;;;;;;4959691;28;20030;-69
2021/11/11 16:45:37;;;;;;;28.80;16.67;;;6.30;96.20;;;;;;4991859;28;20030;-69
2021/11/11 16:48:04;;;;;;;27.33;16.88;;;6.30;96.30;;;;;;4991946;28;20497;-69
2021/11/11 16:50:30;;;;;;;27.98;16.73;;;6.30;96.20;;;;;;4991723;28;20038;-70
2021/11/11 16:52:56;;;;;;;25.58;15.57;;;6.20;96.20;;;;;;4991645;28;20077;-69
2021/11/11 16:55:21;;;;;;;65.50;16.05;;;6.20;96.30;;;;;;4992727;28;20052;-71